Historyczne dane pomiarowe

Dodano dane terminowe – wersja testowa.

Dane z okresu 1951-2019

Wersja bazy: 1.34 [2019-03-16, lista zmian], aktualizacja planowana na 2019-04-15

Dane meteo z obszaru Polski uzyskane na podstawie danych udostępnionych przez Instytut Meteorologii i Gospodarki Wodnej – Państwowy Instytut Badawczy.

 

Wybierz Datę:    

       

TemperaturaWilgotnośćWiatrCiśnienieOpadyŚniegCzas trwania zjawisk
 Stacja t tx tn tng RH VA  wxwx mslp ppp RRR   cm mm wxwxwxwxwxwxwx
1983-08-14 12.3 16.0 9.9 8.9 86.0- 3.7 5.3---- 0.0------------
1983-08-13 12.4 20.0 10.0 8.3 89.3- 8.0 5.7---- 6.0------------
1983-08-12 20.2 27.2 14.3 12.5 75.0- 3.0 2.7---- 0.0------------
1983-08-11 18.3 23.1 16.0 13.8 89.5- 7.3 2.3---- 2.0------------
1983-08-10 19.4 25.8 12.6 9.0 79.8- 4.3 4.0---- 0.1------------
1983-08-09 20.3 26.0 14.3 11.6 76.5- 1.7 4.3---- 0.0------------
1983-08-08 18.9 24.1 14.2 12.6 88.0- 6.3 3.7---- 0.0------------
1983-08-07 20.2 27.0 15.7 14.3 83.8- 2.7 4.3---- 1.3------------
1983-08-06 15.7 20.9 9.5 6.3 87.3- 3.0 2.3---- 0.3------------
1983-08-05 12.9 14.0 11.6 11.5 92.3- 6.7 3.0---- 0.0------------
1983-08-04 16.2 20.3 13.0 14.5 99.0- 8.0 4.3---- 6.8------------
1983-08-03 20.5 29.0 14.1 11.4 80.8- 2.7 4.0---- 8.7------------
1983-08-02 20.5 27.7 12.3 8.0 60.0- 1.0 5.0---- 0.0------------
1983-08-01 18.8 26.5 8.7 5.3 63.3- 0.0 3.0---- 0.0------------
1983-07-31 17.5 23.4 10.0 7.5 69.8- 3.0 3.7---- 0.0------------
1983-07-30 15.7 18.9 12.0 8.3 83.3- 7.7 5.3---- 0.5------------
1983-07-29 17.8 23.0 13.5 11.7 81.8- 4.7 4.0---- 0.0------------
1983-07-28 20.5 25.1 16.1 14.4 90.0- 4.7 3.0---- 0.0------------
1983-07-27 22.0 28.0 14.7 11.4 75.3- 2.3 2.3---- 2.9------------
1983-07-26 19.4 28.0 13.9 11.7 87.3- 3.7 5.7---- 0.0------------
1983-07-25 13.5 16.7 7.9 4.7 95.5- 7.3 4.7---- 0.2------------
1983-07-24 13.6 18.4 8.8 5.8 87.0- 6.7 2.7---- 0.0------------
1983-07-23 12.5 16.1 8.0 5.6 95.5- 7.7 4.3---- 7.4------------
1983-07-22 13.6 18.4 9.9 7.4 80.3- 5.0 5.0---- 4.5------------
1983-07-21 12.1 16.1 6.7 4.8 73.5- 5.7 9.3---- 0.0------------
1983-07-20 15.1 24.0 11.7 11.6 84.0- 5.0 4.0---- 8.3------------
1983-07-19 21.8 28.5 14.4 9.5 65.0- 6.7 6.3---- 0.0------------
1983-07-18 20.1 27.1 9.0 5.5 61.8- 0.0 2.7---- 0.0------------
1983-07-17 20.1 25.3 14.8 11.1 71.5- 1.0 3.7---- 0.0------------
1983-07-16 21.6 29.0 12.9 9.3 67.3- 1.3 4.7---- 0.0------------
1983-07-15 18.2 24.1 12.5 11.6 72.5- 3.7 3.7---- 0.0------------
1983-07-14 19.5 22.2 16.2 15.4 87.8- 5.3 3.7---- 0.6------------
1983-07-13 19.1 23.7 13.0 13.0 86.8- 4.7 2.7---- 0.9------------
1983-07-12 17.6 22.1 14.7 13.7 93.0- 6.3 2.3---- 0.2------------
1983-07-11 19.1 26.3 14.8 13.5 85.3- 6.0 6.0---- 10.9------------
1983-07-10 20.4 28.1 12.4 9.1 74.5- 4.7 3.7---- 1.2------------
1983-07-09 21.1 28.9 12.9 9.5 67.5- 3.3 6.3---- 0.0------------
1983-07-08 18.3 25.1 7.9 4.7 67.3- 2.0 4.0---- 0.0------------
1983-07-07 18.3 24.9 7.6 4.3 59.3- 0.0 4.7---- 0.0------------
1983-07-06 18.6 26.0 8.2 5.5 65.0- 0.0 4.3---- 0.0------------
1983-07-05 18.4 24.4 12.0 7.5 64.8- 2.0 3.3---- 0.0------------
1983-07-04 18.8 27.0 6.9 4.1 60.0- 1.3 2.7---- 0.0------------
1983-07-03 18.2 23.8 9.5 6.3 64.5- 0.0 4.3---- 0.0------------
1983-07-02 18.5 25.1 12.0 9.6 84.5- 3.0 3.7---- 0.0------------
1983-07-01 19.6 26.0 11.7 8.1 75.0- 3.0 3.0---- 0.0------------
1983-06-30 16.0 22.8 3.9 1.4 61.3- 0.7 2.7---- 0.0------------
1983-06-29 14.5 19.1 7.8 4.4 64.5- 1.0 2.7---- 0.0------------
1983-06-28 17.1 20.4 14.1 12.1 94.3- 7.7 4.0---- 2.6------------
1983-06-27 19.1 27.1 9.4 5.2 81.3- 4.3 3.3---- 0.0------------
1983-06-26 19.4 24.4 13.8 12.7 66.3- 0.0 3.7---- 0.0------------
1983-06-25 18.9 28.5 6.9 3.3 65.0- 2.3 4.0---- 1.6------------
1983-06-24 17.9 25.0 5.8 1.7 53.8- 0.0 2.7---- 0.0------------
1983-06-23 12.6 19.8 0.9 -1.1 56.5- 0.0 1.7---- 0.0------------
1983-06-22 11.6 16.1 3.4 -0.6 57.5- 0.7 2.7---- 0.0------------
1983-06-21 17.7 23.4 12.0 7.6 72.3- 0.7 5.0---- 0.0------------
1983-06-20 18.9 25.7 14.7 14.6 82.3- 3.0 4.0---- 0.0------------
1983-06-19 17.8 21.1 14.4 14.2 94.5- 8.0 4.7---- 1.1------------
1983-06-18 14.0 16.7 10.9 9.6 94.5- 8.0 6.3---- 4.5------------
1983-06-17 13.4 18.1 8.8 6.1 76.3- 7.7 3.3---- 0.0------------
1983-06-16 13.0 15.5 11.7 11.2 90.8- 8.0 6.3---- 0.4------------
398.7 ms

 

Źródłem pochodzenia danych jest Instytut Meteorologii i Gospodarki Wodnej – Państwowy Instytut Badawczy. Dane Instytutu Meteorologii i Gospodarki Wodnej – Państwowego Instytutu Badawczego zostały przetworzone.

Dane źródłowe można odnaleźć na stronie https://dane.imgw.pl